createdAt,value
2023-03-02T00:00:45.358Z,65.40
2023-03-02T00:01:52.681Z,65.60
2023-03-02T00:02:54.569Z,65.64
2023-03-02T00:03:59.476Z,65.72
2023-03-02T00:05:01.858Z,65.67
2023-03-02T00:06:04.247Z,66.16
2023-03-02T00:07:10.737Z,65.78
2023-03-02T00:08:15.672Z,65.76
2023-03-02T00:09:17.856Z,65.83
2023-03-02T00:10:19.780Z,64.89
2023-03-02T00:11:22.294Z,64.67
2023-03-02T00:12:27.075Z,64.30
2023-03-02T00:13:30.700Z,64.24
2023-03-02T00:14:32.661Z,63.63
2023-03-02T00:15:34.541Z,63.77
2023-03-02T00:16:36.544Z,64.39
2023-03-02T00:17:38.722Z,64.78
2023-03-02T00:18:40.574Z,64.57
2023-03-02T00:19:42.503Z,64.32
2023-03-02T00:20:44.351Z,63.84
2023-03-02T00:21:46.289Z,63.94
2023-03-02T00:22:48.616Z,63.80
2023-03-02T00:23:51.992Z,63.65
2023-03-02T00:24:53.962Z,63.63
2023-03-02T00:25:55.840Z,63.77
2023-03-02T00:26:57.800Z,64.63
2023-03-02T00:27:59.982Z,64.60
2023-03-02T00:29:02.566Z,64.91
2023-03-02T00:30:05.249Z,65.00
2023-03-02T00:31:07.380Z,64.92
2023-03-02T00:32:09.450Z,64.56
2023-03-02T00:33:11.815Z,65.00
2023-03-02T00:34:13.683Z,64.73
2023-03-02T00:35:16.170Z,63.99
2023-03-02T00:36:20.609Z,63.54
2023-03-02T00:37:22.548Z,63.69
2023-03-02T00:38:24.820Z,64.10
2023-03-02T00:39:26.689Z,64.60
2023-03-02T00:40:28.617Z,65.01
2023-03-02T00:41:30.739Z,64.84
2023-03-02T00:42:33.706Z,64.98
2023-03-02T00:43:35.866Z,65.06
2023-03-02T00:44:37.710Z,65.17
2023-03-02T00:45:39.626Z,64.65
2023-03-02T00:46:41.499Z,64.78
2023-03-02T00:47:43.364Z,64.64
2023-03-02T00:48:46.253Z,64.96
2023-03-02T00:49:49.539Z,64.79
2023-03-02T00:50:51.462Z,64.55
2023-03-02T00:51:53.451Z,64.20
2023-03-02T00:52:55.504Z,64.75
2023-03-02T00:53:57.699Z,64.36
2023-03-02T00:54:59.666Z,63.99
2023-03-02T00:56:03.145Z,63.79
2023-03-02T00:57:06.378Z,64.10
2023-03-02T00:58:08.330Z,63.94
2023-03-02T00:59:28.565Z,63.58
2023-03-02T01:00:32.700Z,63.92
2023-03-02T01:01:35.022Z,63.62
2023-03-02T01:02:43.919Z,63.58
2023-03-02T01:03:46.920Z,63.81
2023-03-02T01:04:49.644Z,63.73
2023-03-02T01:05:55.390Z,63.33
2023-03-02T01:06:58.789Z,63.27
2023-03-02T01:08:00.620Z,63.48
2023-03-02T01:09:02.629Z,63.38
2023-03-02T01:10:05.262Z,63.49
2023-03-02T01:11:16.725Z,63.07
2023-03-02T01:12:18.940Z,62.86
2023-03-02T01:13:21.651Z,62.30
2023-03-02T01:14:24.512Z,62.24
2023-03-02T01:15:26.661Z,62.40
2023-03-02T01:16:28.491Z,62.45
2023-03-02T01:17:30.357Z,62.44
2023-03-02T01:18:33.033Z,62.84
2023-03-02T01:19:35.260Z,62.99
2023-03-02T01:20:37.528Z,63.45
2023-03-02T01:21:39.873Z,63.10
2023-03-02T01:22:43.410Z,62.93
2023-03-02T01:23:45.327Z,63.38
2023-03-02T01:24:47.370Z,63.64
2023-03-02T01:25:49.770Z,63.17
2023-03-02T01:26:51.681Z,64.08
2023-03-02T01:27:53.876Z,64.30
2023-03-02T01:28:55.863Z,64.47
2023-03-02T01:29:57.898Z,63.63
2023-03-02T01:31:02.750Z,63.87
2023-03-02T01:32:05.372Z,64.66
2023-03-02T01:33:07.326Z,64.42
2023-03-02T01:34:09.292Z,64.29
2023-03-02T01:35:11.260Z,64.46
2023-03-02T01:36:13.513Z,64.99
2023-03-02T01:37:15.420Z,64.49
2023-03-02T01:38:17.385Z,64.03
2023-03-02T01:39:22.419Z,63.94
2023-03-02T01:40:25.745Z,64.05
2023-03-02T01:41:28.336Z,64.98
2023-03-02T01:42:38.507Z,65.07
2023-03-02T01:43:40.406Z,65.51
2023-03-02T01:44:50.149Z,65.54
2023-03-02T01:45:59.252Z,65.25
2023-03-02T01:47:13.858Z,65.12
2023-03-02T01:48:23.742Z,65.54
2023-03-02T01:49:26.307Z,65.04
2023-03-02T01:50:29.139Z,64.79
2023-03-02T01:51:35.646Z,65.04
2023-03-02T01:52:38.640Z,65.55
2023-03-02T01:53:46.585Z,65.59
2023-03-02T01:54:50.327Z,65.24
2023-03-02T01:55:52.819Z,65.27
2023-03-02T01:57:02.391Z,66.09
2023-03-02T01:58:06.124Z,66.16
2023-03-02T01:59:16.706Z,66.38
2023-03-02T02:00:24.763Z,66.14
2023-03-02T02:01:27.147Z,66.05
2023-03-02T02:02:29.338Z,66.52
2023-03-02T02:03:31.789Z,66.61
2023-03-02T02:04:37.703Z,66.77
2023-03-02T02:05:42.970Z,66.83
2023-03-02T02:06:50.421Z,66.46
2023-03-02T02:07:52.420Z,66.59
2023-03-02T02:08:57.439Z,66.66
2023-03-02T02:10:00.698Z,66.18
2023-03-02T02:11:02.610Z,66.17
2023-03-02T02:12:05.917Z,66.26
2023-03-02T02:13:11.758Z,66.62
2023-03-02T02:14:13.721Z,67.41
2023-03-02T02:15:15.732Z,68.04
2023-03-02T02:16:18.274Z,67.61
2023-03-02T02:17:20.932Z,67.52
2023-03-02T02:18:23.253Z,67.63
2023-03-02T02:20:00.566Z,67.03
2023-03-02T02:21:02.431Z,67.16
2023-03-02T02:22:04.473Z,67.18
2023-03-02T02:23:25.840Z,67.71
2023-03-02T02:24:46.046Z,68.38
2023-03-02T02:25:53.495Z,67.82
2023-03-02T02:26:57.760Z,67.70
2023-03-02T02:27:59.781Z,67.81
2023-03-02T02:29:12.384Z,67.37
2023-03-02T02:30:16.312Z,67.61
2023-03-02T02:31:38.088Z,67.81
2023-03-02T02:32:41.689Z,67.79
2023-03-02T02:33:49.452Z,68.79
2023-03-02T02:34:59.422Z,68.57
2023-03-02T02:36:10.199Z,68.14
2023-03-02T02:37:16.936Z,68.17
2023-03-02T02:38:21.367Z,67.71
2023-03-02T02:39:31.634Z,68.18
2023-03-02T02:40:48.396Z,67.77
2023-03-02T02:41:55.114Z,68.04
2023-03-02T02:42:57.185Z,67.40
2023-03-02T02:43:59.228Z,66.71
2023-03-02T02:45:05.748Z,66.72
2023-03-02T02:46:10.556Z,66.59
2023-03-02T02:47:20.648Z,67.55
2023-03-02T02:48:25.325Z,67.43
2023-03-02T02:49:40.122Z,67.27
2023-03-02T02:50:43.149Z,67.46
2023-03-02T02:51:45.386Z,67.52
2023-03-02T02:52:55.545Z,67.30
2023-03-02T02:53:59.146Z,67.08
2023-03-02T02:55:02.291Z,67.16
2023-03-02T02:56:07.171Z,67.12
2023-03-02T02:57:12.320Z,67.15
2023-03-02T02:58:20.166Z,67.47
2023-03-02T02:59:29.776Z,67.08
2023-03-02T03:00:32.106Z,67.37
2023-03-02T03:01:34.857Z,66.80
2023-03-02T03:02:44.192Z,66.97
2023-03-02T03:03:52.754Z,66.66
2023-03-02T03:05:04.791Z,66.35
2023-03-02T03:06:13.629Z,65.48
2023-03-02T03:07:24.692Z,64.42
2023-03-02T03:08:53.077Z,64.01
2023-03-02T03:10:16.197Z,63.20
2023-03-02T03:11:26.457Z,62.70
2023-03-02T03:12:31.810Z,62.13
2023-03-02T03:13:34.187Z,60.91
2023-03-02T03:14:40.374Z,60.61
2023-03-02T03:15:42.988Z,59.34
2023-03-02T03:16:46.551Z,59.14
2023-03-02T03:17:55.125Z,57.40
2023-03-02T03:19:01.693Z,56.26
2023-03-02T03:20:09.101Z,54.96
2023-03-02T03:21:11.476Z,54.07
2023-03-02T03:22:15.959Z,52.38
2023-03-02T03:23:18.279Z,52.23
2023-03-02T03:24:20.759Z,51.68
2023-03-02T03:25:26.791Z,51.37
2023-03-02T03:26:29.820Z,49.70
2023-03-02T03:27:32.225Z,49.13
2023-03-02T03:28:36.005Z,48.99
2023-03-02T03:29:41.441Z,49.28
2023-03-02T03:30:44.400Z,49.70
2023-03-02T03:31:47.201Z,48.64
2023-03-02T03:32:49.376Z,48.37
2023-03-02T03:33:52.599Z,47.81
2023-03-02T03:34:54.733Z,47.22
2023-03-02T03:35:56.872Z,46.75
2023-03-02T03:37:02.199Z,46.33
2023-03-02T03:38:06.661Z,46.42
2023-03-02T03:39:08.615Z,46.81
2023-03-02T03:40:10.890Z,46.84
2023-03-02T03:41:13.174Z,46.09
2023-03-02T03:42:15.566Z,46.28
2023-03-02T03:43:17.769Z,45.55
2023-03-02T03:44:21.370Z,44.91
2023-03-02T03:45:23.313Z,44.88
2023-03-02T03:46:25.458Z,45.00
2023-03-02T03:47:27.646Z,45.41
2023-03-02T03:48:29.685Z,47.30
2023-03-02T03:49:31.590Z,49.62
2023-03-02T03:50:33.548Z,49.90
2023-03-02T03:51:35.755Z,49.47
2023-03-02T03:52:38.397Z,48.00
2023-03-02T03:53:40.854Z,47.19
2023-03-02T03:54:42.715Z,46.33
2023-03-02T03:55:44.660Z,45.89
2023-03-02T03:56:49.136Z,44.97
2023-03-02T03:57:51.501Z,44.67
2023-03-02T03:59:06.224Z,44.88
2023-03-02T04:00:14.836Z,45.38
2023-03-02T04:01:20.814Z,46.32
2023-03-02T04:02:22.893Z,47.78
2023-03-02T04:03:25.528Z,49.82
2023-03-02T04:04:33.684Z,51.11
2023-03-02T04:05:36.980Z,51.65
2023-03-02T04:06:40.063Z,51.55
2023-03-02T04:07:42.030Z,53.04
2023-03-02T04:08:44.048Z,54.20
2023-03-02T04:09:45.993Z,55.15
2023-03-02T04:10:48.085Z,55.71
2023-03-02T04:11:53.305Z,55.80
2023-03-02T04:12:55.854Z,56.05
2023-03-02T04:13:58.302Z,56.09
2023-03-02T04:15:00.758Z,56.99
2023-03-02T04:16:02.953Z,57.37
2023-03-02T04:17:07.109Z,57.27
2023-03-02T04:18:10.457Z,57.92
2023-03-02T04:19:13.669Z,58.18
2023-03-02T04:20:16.586Z,58.12
2023-03-02T04:21:19.568Z,58.14
2023-03-02T04:22:22.108Z,58.20
2023-03-02T04:23:23.989Z,56.21
2023-03-02T04:24:25.977Z,56.15
2023-03-02T04:25:30.316Z,56.07
2023-03-02T04:26:33.869Z,56.11
2023-03-02T04:27:36.450Z,56.35
2023-03-02T04:28:38.786Z,56.10
2023-03-02T04:29:41.410Z,57.06
2023-03-02T04:30:43.492Z,57.22
2023-03-02T04:31:45.909Z,56.69
2023-03-02T04:32:48.183Z,56.95
2023-03-02T04:33:50.243Z,56.35
2023-03-02T04:34:52.204Z,56.95
2023-03-02T04:35:54.682Z,56.97
2023-03-02T04:36:57.246Z,57.32
2023-03-02T04:37:59.501Z,57.41
2023-03-02T04:39:01.374Z,56.68
2023-03-02T04:40:04.352Z,56.56
2023-03-02T04:41:06.329Z,57.41
2023-03-02T04:42:08.235Z,58.01
2023-03-02T04:43:10.375Z,57.42
2023-03-02T04:44:13.331Z,58.26
2023-03-02T04:45:15.291Z,58.94
2023-03-02T04:46:21.764Z,58.77
2023-03-02T04:47:23.879Z,58.84
2023-03-02T04:48:26.285Z,59.18
2023-03-02T04:49:28.185Z,58.99
2023-03-02T04:50:30.680Z,59.58
2023-03-02T04:51:36.892Z,59.82
2023-03-02T04:52:39.231Z,59.72
2023-03-02T04:53:41.506Z,59.87
2023-03-02T04:54:43.419Z,59.55
2023-03-02T04:55:45.480Z,58.77
2023-03-02T04:56:48.625Z,58.77
2023-03-02T04:57:50.612Z,58.84
2023-03-02T04:58:52.804Z,58.57
2023-03-02T04:59:54.644Z,58.78
2023-03-02T05:01:03.615Z,58.68
2023-03-02T05:02:05.672Z,58.87
2023-03-02T05:03:07.741Z,58.83
2023-03-02T05:04:10.208Z,59.20
2023-03-02T05:05:19.047Z,59.78
2023-03-02T05:06:25.231Z,59.34
2023-03-02T05:07:27.139Z,59.14
2023-03-02T05:08:29.713Z,59.24
2023-03-02T05:09:31.939Z,59.18
2023-03-02T05:10:33.858Z,59.16
2023-03-02T05:11:35.756Z,58.94
2023-03-02T05:12:54.724Z,58.56
2023-03-02T05:13:59.565Z,58.51
2023-03-02T05:15:01.697Z,58.25
2023-03-02T05:16:03.856Z,61.57
2023-03-02T05:17:05.791Z,58.37
2023-03-02T05:18:10.858Z,57.89
2023-03-02T05:19:13.508Z,57.11
2023-03-02T05:20:15.972Z,56.89
2023-03-02T05:21:18.790Z,57.33
2023-03-02T05:22:20.635Z,57.92
2023-03-02T05:23:27.165Z,58.22
2023-03-02T05:24:29.076Z,59.13
2023-03-02T05:25:33.555Z,59.98
2023-03-02T05:26:35.759Z,60.02
2023-03-02T05:27:37.819Z,59.94
2023-03-02T05:28:41.487Z,59.99
2023-03-02T05:29:43.410Z,59.40
2023-03-02T05:30:46.249Z,59.89
2023-03-02T05:31:48.894Z,59.92
2023-03-02T05:32:51.898Z,60.22
2023-03-02T05:33:53.778Z,60.21
2023-03-02T05:34:55.762Z,66.93
2023-03-02T05:35:58.550Z,61.86
2023-03-02T05:37:00.510Z,60.38
2023-03-02T05:38:02.408Z,59.98
2023-03-02T05:39:05.456Z,60.16
2023-03-02T05:40:09.656Z,60.37
2023-03-02T05:41:12.108Z,60.64
2023-03-02T05:42:14.195Z,60.71
2023-03-02T05:43:18.712Z,60.88
2023-03-02T05:44:20.607Z,60.79
2023-03-02T05:45:35.167Z,61.79
2023-03-02T05:46:38.239Z,62.03
2023-03-02T05:47:40.174Z,62.37
2023-03-02T05:48:42.515Z,61.77
2023-03-02T05:49:44.683Z,62.06
2023-03-02T05:50:46.628Z,61.46
2023-03-02T05:51:48.836Z,61.49
2023-03-02T05:52:50.926Z,61.97
2023-03-02T05:53:52.967Z,61.97
2023-03-02T05:54:54.951Z,61.19
2023-03-02T05:55:57.006Z,61.15
2023-03-02T05:56:59.197Z,62.17
2023-03-02T05:58:01.053Z,61.86
2023-03-02T05:59:02.988Z,61.97
2023-03-02T06:00:05.980Z,61.46
2023-03-02T06:01:15.532Z,61.67
2023-03-02T06:02:18.304Z,61.41
2023-03-02T06:03:20.318Z,60.88
2023-03-02T06:04:22.252Z,59.65
2023-03-02T06:05:24.681Z,59.10
2023-03-02T06:06:26.577Z,58.06
2023-03-02T06:07:29.946Z,57.24
2023-03-02T06:08:31.895Z,56.09
2023-03-02T06:09:33.966Z,53.81
2023-03-02T06:10:36.332Z,50.44
2023-03-02T06:11:38.179Z,47.71
2023-03-02T06:12:40.613Z,45.61
2023-03-02T06:13:42.535Z,43.97
2023-03-02T06:14:44.537Z,42.35
2023-03-02T06:15:46.841Z,41.71
2023-03-02T06:16:49.020Z,41.24
2023-03-02T06:17:51.264Z,39.86
2023-03-02T06:18:53.124Z,39.31
2023-03-02T06:19:55.040Z,59.17
2023-03-02T06:20:57.039Z,37.77
2023-03-02T06:21:58.947Z,38.03
2023-03-02T06:23:01.465Z,37.28
2023-03-02T06:24:03.396Z,36.44
2023-03-02T06:25:05.622Z,35.43
2023-03-02T06:26:12.030Z,35.42
2023-03-02T06:27:14.860Z,34.94
2023-03-02T06:28:19.900Z,34.11
2023-03-02T06:29:22.650Z,34.96
2023-03-02T06:30:25.966Z,34.77
2023-03-02T06:31:28.035Z,34.07
2023-03-02T06:32:34.174Z,34.29
2023-03-02T06:33:36.430Z,34.71
2023-03-02T06:34:38.287Z,33.98
2023-03-02T06:35:40.314Z,33.23
2023-03-02T06:36:42.277Z,32.95
2023-03-02T06:37:44.736Z,32.61
2023-03-02T06:38:47.045Z,33.92
2023-03-02T06:39:48.919Z,34.06
2023-03-02T06:40:50.777Z,32.44
2023-03-02T06:41:52.651Z,32.03
2023-03-02T06:42:54.586Z,31.68
2023-03-02T06:43:57.167Z,31.50
2023-03-02T06:44:59.172Z,31.12
2023-03-02T06:46:02.018Z,31.84
2023-03-02T06:47:03.945Z,32.44
2023-03-02T06:48:07.588Z,33.43
2023-03-02T06:49:12.487Z,33.56
2023-03-02T06:50:15.907Z,34.09
2023-03-02T06:51:18.132Z,35.47
2023-03-02T06:52:20.092Z,36.68
2023-03-02T06:53:23.406Z,36.15
2023-03-02T06:54:25.600Z,36.20
2023-03-02T06:55:27.629Z,36.71
2023-03-02T06:56:29.514Z,37.05
2023-03-02T06:57:34.236Z,37.47
2023-03-02T06:58:37.268Z,37.58
2023-03-02T06:59:39.500Z,38.03
2023-03-02T07:00:41.623Z,38.73
2023-03-02T07:01:43.778Z,40.90
2023-03-02T07:02:45.688Z,40.85
2023-03-02T07:03:47.878Z,58.46
2023-03-02T07:04:50.151Z,68.32
2023-03-02T07:05:52.290Z,39.34
2023-03-02T07:06:54.571Z,38.94
2023-03-02T07:07:56.418Z,37.69
2023-03-02T07:08:58.259Z,54.01
2023-03-02T07:10:00.386Z,38.14
2023-03-02T07:11:06.590Z,35.60
2023-03-02T07:12:08.478Z,54.98
2023-03-02T07:13:10.345Z,35.94
2023-03-02T07:14:12.212Z,33.32
2023-03-02T07:15:15.773Z,34.64
2023-03-02T07:16:17.744Z,33.68
2023-03-02T07:17:19.765Z,34.04
2023-03-02T07:18:21.773Z,32.62
2023-03-02T07:19:23.694Z,31.54
2023-03-02T07:20:25.890Z,30.31
2023-03-02T07:21:27.848Z,30.74
2023-03-02T07:22:29.724Z,30.00
2023-03-02T07:23:31.839Z,29.37
2023-03-02T07:24:33.913Z,29.38
2023-03-02T07:25:37.060Z,29.48
2023-03-02T07:26:39.108Z,29.63
2023-03-02T07:27:41.253Z,28.69
2023-03-02T07:28:44.506Z,38.54
2023-03-02T07:29:46.557Z,45.88
2023-03-02T07:30:48.914Z,52.89
2023-03-02T07:31:56.998Z,49.34
2023-03-02T07:32:58.998Z,33.30
2023-03-02T07:34:00.933Z,28.37
2023-03-02T07:35:03.211Z,27.67
2023-03-02T07:36:07.184Z,34.92
2023-03-02T07:37:09.148Z,40.38
2023-03-02T07:38:11.020Z,31.81
2023-03-02T07:39:12.881Z,27.56
2023-03-02T07:40:15.766Z,26.88
2023-03-02T07:41:18.167Z,27.52
2023-03-02T07:42:20.126Z,27.51
2023-03-02T07:43:25.471Z,27.54
2023-03-02T07:44:28.131Z,27.62
2023-03-02T07:45:30.167Z,27.78
2023-03-02T07:46:32.378Z,27.39
2023-03-02T07:47:34.376Z,27.32
2023-03-02T07:48:36.673Z,27.02
2023-03-02T07:49:38.919Z,26.86
2023-03-02T07:50:40.866Z,27.17
2023-03-02T07:51:43.069Z,27.56
2023-03-02T07:52:44.965Z,26.66
2023-03-02T07:53:46.921Z,27.57
2023-03-02T07:54:49.015Z,28.80
2023-03-02T07:55:50.875Z,29.21
2023-03-02T07:56:53.107Z,28.45
2023-03-02T07:57:54.967Z,28.57
2023-03-02T07:58:56.940Z,29.13
2023-03-02T07:59:58.812Z,29.12
2023-03-02T08:01:00.779Z,28.44
2023-03-02T08:02:03.149Z,27.80
2023-03-02T08:03:05.140Z,28.38
2023-03-02T08:04:07.074Z,28.88
2023-03-02T08:05:13.091Z,28.43
2023-03-02T08:06:14.992Z,29.08
2023-03-02T08:07:17.190Z,28.79
2023-03-02T08:08:19.086Z,29.71
2023-03-02T08:09:20.930Z,29.60
2023-03-02T08:10:23.162Z,29.47
2023-03-02T08:11:25.029Z,33.84
2023-03-02T08:12:28.188Z,30.19
2023-03-02T08:13:30.064Z,30.01
2023-03-02T08:14:32.358Z,29.65
2023-03-02T08:15:34.346Z,29.84
2023-03-02T08:16:36.330Z,29.28
2023-03-02T08:17:38.579Z,29.13
2023-03-02T08:18:41.740Z,29.55
2023-03-02T08:19:43.611Z,29.21
2023-03-02T08:20:45.492Z,29.05
2023-03-02T08:21:47.313Z,29.46
2023-03-02T08:22:50.182Z,29.69
2023-03-02T08:23:52.907Z,29.50
2023-03-02T08:24:55.018Z,29.71
2023-03-02T08:25:57.024Z,30.42
2023-03-02T08:27:03.081Z,29.97
2023-03-02T08:28:05.287Z,30.28
2023-03-02T08:29:07.316Z,30.33
2023-03-02T08:30:10.722Z,30.21
2023-03-02T08:31:13.828Z,30.20
2023-03-02T08:32:15.850Z,30.06
2023-03-02T08:33:18.133Z,29.43
2023-03-02T08:34:20.044Z,30.01
2023-03-02T08:35:22.288Z,30.51
2023-03-02T08:36:24.222Z,30.34
2023-03-02T08:37:26.220Z,31.17
2023-03-02T08:38:29.394Z,31.42
2023-03-02T08:39:32.195Z,32.38
2023-03-02T08:40:34.908Z,31.48
2023-03-02T08:41:36.841Z,31.31
2023-03-02T08:42:38.726Z,34.81
2023-03-02T08:43:41.092Z,30.96
2023-03-02T08:44:43.164Z,30.55
2023-03-02T08:45:45.608Z,35.30
2023-03-02T08:46:50.637Z,44.75
2023-03-02T08:47:55.680Z,38.17
2023-03-02T08:48:57.882Z,36.87
2023-03-02T08:49:59.826Z,33.45
2023-03-02T08:51:10.198Z,34.57
2023-03-02T08:52:15.281Z,36.39
2023-03-02T08:53:17.353Z,31.13
2023-03-02T08:54:20.771Z,36.73
2023-03-02T08:55:22.748Z,30.01
2023-03-02T08:56:30.280Z,29.62
2023-03-02T08:57:32.153Z,30.53
2023-03-02T08:58:34.113Z,30.39
2023-03-02T08:59:36.240Z,30.17
2023-03-02T09:00:38.578Z,30.12
2023-03-02T09:01:41.539Z,30.68
2023-03-02T09:02:43.585Z,30.37
2023-03-02T09:03:45.954Z,30.50
2023-03-02T09:04:48.304Z,30.89
2023-03-02T09:05:51.102Z,30.67
2023-03-02T09:06:53.113Z,31.19
2023-03-02T09:07:55.100Z,31.44
2023-03-02T09:08:57.853Z,31.18
2023-03-02T09:10:00.176Z,31.45
2023-03-02T09:11:02.176Z,31.23
2023-03-02T09:12:04.243Z,30.91
2023-03-02T09:13:08.356Z,31.44
2023-03-02T09:14:11.102Z,31.91
2023-03-02T09:15:13.363Z,32.38
2023-03-02T09:16:16.056Z,32.33
2023-03-02T09:17:18.090Z,32.72
2023-03-02T09:18:20.089Z,32.56
2023-03-02T09:19:22.127Z,32.99
2023-03-02T09:20:24.707Z,32.45
2023-03-02T09:21:26.724Z,32.51
2023-03-02T09:22:28.894Z,32.83
2023-03-02T09:23:31.289Z,32.83
2023-03-02T09:24:33.238Z,32.70
2023-03-02T09:25:35.529Z,32.46
2023-03-02T09:26:39.120Z,32.67
2023-03-02T09:27:41.813Z,33.54
2023-03-02T09:28:43.925Z,33.09
2023-03-02T09:29:45.833Z,32.57
2023-03-02T09:30:50.130Z,32.84
2023-03-02T09:31:52.219Z,32.77
2023-03-02T09:32:54.478Z,32.68
2023-03-02T09:33:57.174Z,32.95
2023-03-02T09:34:59.011Z,32.98
2023-03-02T09:36:06.067Z,33.08
2023-03-02T09:37:07.914Z,32.89
2023-03-02T09:38:12.947Z,32.49
2023-03-02T09:39:14.962Z,32.61
2023-03-02T09:40:20.504Z,32.70
2023-03-02T09:41:22.641Z,32.86
2023-03-02T09:42:44.118Z,32.15
2023-03-02T09:43:52.211Z,32.27
2023-03-02T09:45:02.888Z,31.98
2023-03-02T09:46:10.780Z,32.00
2023-03-02T09:47:35.439Z,32.48
2023-03-02T09:48:45.652Z,33.33
2023-03-02T09:50:05.597Z,32.09
2023-03-02T09:51:16.729Z,32.43
2023-03-02T09:52:44.947Z,32.19
2023-03-02T09:54:03.345Z,32.80
2023-03-02T09:55:18.419Z,33.15
2023-03-02T09:56:21.783Z,33.00
2023-03-02T09:57:35.089Z,33.49
2023-03-02T09:58:39.623Z,33.61
2023-03-02T09:59:51.815Z,33.74
2023-03-02T10:00:53.829Z,33.29
2023-03-02T10:02:19.028Z,33.14
2023-03-02T10:03:23.759Z,32.89
2023-03-02T10:04:29.236Z,33.05
2023-03-02T10:05:37.644Z,33.01
2023-03-02T10:06:39.587Z,33.39
2023-03-02T10:07:42.153Z,33.44
2023-03-02T10:08:44.072Z,33.53
2023-03-02T10:09:46.605Z,32.88
2023-03-02T10:11:00.280Z,32.70
2023-03-02T10:12:52.004Z,32.73
2023-03-02T10:14:06.362Z,33.32
2023-03-02T10:15:22.365Z,33.48
2023-03-02T10:16:41.506Z,34.69
2023-03-02T10:17:52.973Z,33.24
2023-03-02T10:19:13.130Z,32.94
2023-03-02T10:20:22.596Z,32.64
2023-03-02T10:21:34.956Z,32.75
2023-03-02T10:22:48.362Z,32.76
2023-03-02T10:24:14.840Z,33.69
2023-03-02T10:25:48.655Z,33.08
2023-03-02T10:26:55.673Z,34.18
2023-03-02T10:28:22.703Z,33.04
2023-03-02T10:29:30.723Z,33.61
2023-03-02T10:30:37.783Z,32.70
2023-03-02T10:31:41.605Z,32.87
2023-03-02T10:32:47.839Z,32.60
2023-03-02T10:33:49.726Z,32.99
2023-03-02T10:34:53.607Z,33.35
2023-03-02T10:35:55.915Z,33.78
2023-03-02T10:36:58.481Z,34.36
2023-03-02T10:38:11.923Z,34.04
2023-03-02T10:39:16.599Z,34.77
2023-03-02T10:40:43.702Z,34.46
2023-03-02T10:42:03.662Z,33.68
2023-03-02T10:43:11.404Z,33.16
2023-03-02T10:44:22.314Z,34.06
2023-03-02T10:45:32.147Z,33.90
2023-03-02T10:46:46.320Z,34.20
2023-03-02T10:47:48.598Z,33.87
2023-03-02T10:48:52.208Z,33.72
2023-03-02T10:49:55.784Z,33.41
2023-03-02T10:50:59.091Z,33.73
2023-03-02T10:52:06.983Z,34.08
2023-03-02T10:53:17.725Z,34.76
2023-03-02T10:54:19.589Z,35.11
2023-03-02T10:55:21.435Z,35.59
2023-03-02T10:56:23.369Z,34.67
2023-03-02T10:57:25.188Z,35.13
2023-03-02T10:58:33.338Z,35.16
2023-03-02T10:59:43.499Z,35.20
2023-03-02T11:00:59.433Z,34.88
2023-03-02T11:02:03.033Z,35.82
2023-03-02T11:03:20.202Z,36.18
2023-03-02T11:04:22.485Z,35.99
2023-03-02T11:05:36.877Z,36.39
2023-03-02T11:06:38.778Z,36.16
2023-03-02T11:07:40.689Z,36.99
2023-03-02T11:08:42.541Z,36.93
2023-03-02T11:10:02.591Z,37.21
2023-03-02T11:11:04.952Z,38.00
2023-03-02T11:12:14.517Z,37.62
2023-03-02T11:13:20.587Z,38.09
2023-03-02T11:14:25.498Z,38.42
2023-03-02T11:15:40.065Z,38.74
2023-03-02T11:16:42.231Z,38.58
2023-03-02T11:17:46.822Z,39.48
2023-03-02T11:19:16.221Z,39.26
2023-03-02T11:20:25.008Z,39.70
2023-03-02T11:21:40.598Z,39.34
2023-03-02T11:22:54.782Z,39.30
2023-03-02T11:24:15.200Z,39.24
2023-03-02T11:25:30.843Z,39.15
2023-03-02T11:26:41.698Z,38.84
2023-03-02T11:27:45.424Z,39.39
2023-03-02T11:29:03.364Z,39.40
2023-03-02T11:30:19.368Z,39.47
2023-03-02T11:31:40.170Z,39.03
2023-03-02T11:33:12.883Z,38.73
2023-03-02T11:34:31.214Z,39.39
2023-03-02T11:35:58.812Z,38.42
2023-03-02T11:37:17.176Z,38.81
2023-03-02T11:38:54.877Z,38.57
2023-03-02T11:40:09.044Z,38.18
2023-03-02T11:41:24.646Z,38.33
2023-03-02T11:42:36.274Z,38.46
2023-03-02T11:43:38.647Z,37.99
2023-03-02T11:44:47.376Z,37.78
2023-03-02T11:46:13.835Z,37.32
2023-03-02T11:47:22.680Z,37.51
2023-03-02T11:48:37.641Z,37.57
2023-03-02T11:49:45.707Z,37.66
2023-03-02T11:50:59.526Z,37.60
2023-03-02T11:52:02.233Z,37.52
2023-03-02T11:53:08.076Z,37.87
2023-03-02T11:54:41.103Z,37.75
2023-03-02T11:55:48.675Z,37.28
2023-03-02T11:56:50.751Z,37.30
2023-03-02T11:57:56.310Z,36.91
2023-03-02T11:59:03.026Z,36.22
2023-03-02T12:00:16.009Z,37.02
2023-03-02T12:01:23.534Z,36.93
2023-03-02T12:02:27.525Z,37.45
2023-03-02T12:03:32.421Z,37.63
2023-03-02T12:04:37.687Z,37.62
2023-03-02T12:05:40.068Z,37.61
2023-03-02T12:06:45.280Z,37.32
2023-03-02T12:07:57.444Z,37.04
2023-03-02T12:09:31.341Z,37.74
2023-03-02T12:10:40.018Z,37.42
2023-03-02T12:11:46.096Z,36.98
2023-03-02T12:13:03.838Z,36.96
2023-03-02T12:14:45.278Z,36.38
2023-03-02T12:15:56.279Z,36.86
2023-03-02T12:17:18.142Z,37.04
2023-03-02T12:18:23.066Z,36.93
2023-03-02T12:19:38.864Z,37.04
2023-03-02T12:20:43.002Z,38.06
2023-03-02T12:22:02.284Z,37.58
2023-03-02T12:23:10.594Z,37.02
2023-03-02T12:24:25.547Z,36.65
2023-03-02T12:25:37.305Z,36.94
2023-03-02T12:26:39.230Z,37.13
2023-03-02T12:27:42.098Z,36.87
2023-03-02T12:28:44.274Z,36.89
2023-03-02T12:29:49.904Z,36.83
2023-03-02T12:31:08.400Z,36.64
2023-03-02T12:32:33.037Z,36.61
2023-03-02T12:33:47.859Z,36.60
2023-03-02T12:35:08.286Z,35.80
2023-03-02T12:36:15.317Z,35.73
2023-03-02T12:37:21.753Z,36.61
2023-03-02T12:38:33.958Z,37.01
2023-03-02T12:40:18.483Z,36.49
2023-03-02T12:41:42.008Z,36.38
2023-03-02T12:43:01.300Z,37.04
2023-03-02T12:44:31.696Z,37.07
2023-03-02T12:46:00.475Z,37.00
2023-03-02T12:47:04.165Z,36.71
2023-03-02T12:48:38.029Z,36.69
2023-03-02T12:50:02.099Z,36.86
2023-03-02T12:51:05.771Z,36.92
2023-03-02T12:52:26.644Z,37.00
2023-03-02T12:53:29.064Z,37.65
2023-03-02T12:54:34.395Z,37.38
2023-03-02T12:55:38.765Z,36.84
2023-03-02T12:56:40.961Z,36.61
2023-03-02T12:57:55.066Z,37.17
2023-03-02T12:58:56.989Z,37.16
2023-03-02T13:00:01.510Z,36.98
2023-03-02T13:01:04.085Z,37.50
2023-03-02T13:02:35.172Z,37.60
2023-03-02T13:03:47.770Z,37.02
2023-03-02T13:04:57.998Z,36.65
2023-03-02T13:06:11.301Z,37.40
2023-03-02T13:07:22.772Z,37.49
2023-03-02T13:08:28.828Z,36.86
2023-03-02T13:09:31.354Z,37.26
2023-03-02T13:10:52.168Z,37.13
2023-03-02T13:11:55.202Z,37.14
2023-03-02T13:12:59.338Z,37.84
2023-03-02T13:14:04.076Z,38.04
2023-03-02T13:15:15.345Z,37.53
2023-03-02T13:16:22.279Z,37.62
2023-03-02T13:17:31.246Z,37.72
2023-03-02T13:18:36.504Z,37.45
2023-03-02T13:19:38.438Z,37.64
2023-03-02T13:20:41.107Z,37.74
2023-03-02T13:21:43.196Z,37.50
2023-03-02T13:22:45.228Z,37.33
2023-03-02T13:23:50.250Z,37.53
2023-03-02T13:25:02.260Z,37.55
2023-03-02T13:26:05.868Z,37.38
2023-03-02T13:27:15.467Z,37.33
2023-03-02T13:28:30.459Z,37.44
2023-03-02T13:29:32.516Z,37.08
2023-03-02T13:30:47.714Z,36.90
2023-03-02T13:31:50.835Z,37.12
2023-03-02T13:33:00.868Z,36.65
2023-03-02T13:34:02.837Z,36.83
2023-03-02T13:35:17.948Z,37.12
2023-03-02T13:36:26.981Z,37.13
2023-03-02T13:37:35.024Z,37.55
2023-03-02T13:38:37.978Z,37.77
2023-03-02T13:39:39.876Z,37.48
2023-03-02T13:40:48.389Z,37.39
2023-03-02T13:41:58.939Z,37.39
2023-03-02T13:43:01.270Z,37.62
2023-03-02T13:44:19.879Z,37.46
2023-03-02T13:45:24.812Z,38.17
2023-03-02T13:46:29.636Z,37.64
2023-03-02T13:47:31.574Z,37.78
2023-03-02T13:48:34.368Z,37.73
2023-03-02T13:49:37.798Z,38.33
2023-03-02T13:50:39.741Z,37.67
2023-03-02T13:51:45.390Z,37.63
2023-03-02T13:52:48.254Z,38.00
2023-03-02T13:54:00.316Z,37.75
2023-03-02T13:55:02.222Z,37.28
2023-03-02T13:56:04.327Z,36.80
2023-03-02T13:57:06.900Z,37.12
2023-03-02T13:58:16.667Z,37.30
2023-03-02T13:59:21.175Z,37.20
2023-03-02T14:00:36.390Z,37.56
2023-03-02T14:01:38.963Z,38.33
2023-03-02T14:02:45.113Z,38.56
2023-03-02T14:03:47.098Z,38.49
2023-03-02T14:04:49.197Z,37.87
2023-03-02T14:05:52.356Z,37.94